Oslo Bulk 1 — 9V8766 — position and weather

sailwx.info

Track history (hours):
 
Tides and Currents Weather Stations Pressure Air Temp Water Temp Dewpoint Dewpoint Depression Visibility Wind Speed Wind Dir Waves Ship Positions

Oslo Bulk 1

Last reported at 2016-Jul-13 03:31 UTC. Time now 2016-Jul-30 05:29 UTC.
Position S 26°56' E 153°44'.
Warning: this ship's position is 17 days out of date.

Length 108 m; draft 6.2 m.

Type: Ship. MMSI: 564010000.

Date/timePositionNaut miles runAvg speedWind from/ knotsBaromVisibWave heightAir tempDewpointWater temp
2016-Jul-13 03:31S 26°56' E 153°44'4811.2
2016-Jul-12 23:16S 27°43' E 153°47'710.1
2016-Jul-12 22:33S 27°51' E 153°48'283 8.8
2016-Jul-11 14:33S 32°27' E 152°38'1010.3
2016-Jul-11 13:33S 32°35' E 152°30'1010.4
2016-Jul-11 12:33S 32°43' E 152°21'1010.1
2016-Jul-11 11:33S 32°49' E 152°12'1010.4
2016-Jul-11 10:33S 32°53' E 152°01'8 8.1
2016-Jul-11 09:33S 32°56' E 151°52'5 5.2
2016-Jul-11 08:33S 32°54' E 151°46'0 0.2
2016-Jul-11 07:31S 32°54' E 151°46'0 0.0
2016-Jul-11 06:31S 32°54' E 151°46'0 0.0
2016-Jul-11 04:31S 32°54' E 151°46'0 0.0
2016-Jul-11 03:31S 32°54' E 151°46'0 0.0
2016-Jul-11 02:31S 32°54' E 151°46'0 0.0
2016-Jul-11 01:31S 32°54' E 151°46'0 0.0
2016-Jul-11 00:31S 32°54' E 151°46'0 0.0
2016-Jul-10 23:34S 32°54' E 151°46'0 0.0
2016-Jul-10 22:31S 32°54' E 151°46'0 0.0
2016-Jul-10 21:31S 32°54' E 151°46'0 0.0
2016-Jul-10 20:31S 32°54' E 151°46'0 0.0
2016-Jul-10 19:31S 32°54' E 151°46'0 0.0
2016-Jul-10 18:31S 32°54' E 151°46'0 0.0
2016-Jul-10 17:31S 32°54' E 151°46'0 0.0
2016-Jul-10 16:31S 32°54' E 151°46'0 0.0
2016-Jul-10 15:31S 32°54' E 151°46'0 0.0
2016-Jul-10 14:31S 32°54' E 151°46'0 0.0
2016-Jul-10 13:31S 32°54' E 151°46'0 0.1
2016-Jul-10 12:33S 32°54' E 151°46'13 6.6
2016-Jul-10 10:34S 33°00' E 151°59'2 1.5
2016-Jul-10 09:33S 33°01' E 152°01'9 8.6
2016-Jul-10 08:33S 33°05' E 151°51'20110.3
2016-Jul-09 13:04S 36°16' E 150°39'510.3
2016-Jul-09 12:34S 36°21' E 150°37'1010.4
2016-Jul-09 11:33S 36°32' E 150°33'10 9.6
2016-Jul-09 10:33S 36°41' E 150°31'9 9.2
2016-Jul-09 09:33S 36°50' E 150°27'9 8.9
2016-Jul-09 08:34S 36°58' E 150°24'10 9.7
2016-Jul-09 07:34S 37°07' E 150°21'1110.7
2016-Jul-09 06:33S 37°18' E 150°16'2010.1
2016-Jul-09 04:33S 37°36' E 150°05'1010.2
2016-Jul-09 03:33S 37°42' E 149°55'1010.4
2016-Jul-09 02:34S 37°49' E 149°45'1110.9
2016-Jul-09 01:33S 37°55' E 149°34'1110.7
2016-Jul-09 00:34S 38°02' E 149°23'1110.7
2016-Jul-08 23:34S 38°09' E 149°13'1110.7
2016-Jul-08 22:34S 38°16' E 149°02'1110.8
2016-Jul-08 21:33S 38°23' E 148°52'1110.9
2016-Jul-08 20:33S 38°30' E 148°41'1110.8
2016-Jul-08 19:33S 38°37' E 148°31'65 9.3
2016-Jul-08 12:33S 39°04' E 147°15'9 9.1
2016-Jul-08 11:33S 39°07' E 147°04'1010.2
2016-Jul-08 10:33S 39°10' E 146°51'1111.1
2016-Jul-08 09:34S 39°14' E 146°38'1111.1
2016-Jul-08 08:33S 39°16' E 146°24'1111.0
2016-Jul-08 07:33S 39°16' E 146°10'1110.6
2016-Jul-08 06:33S 39°16' E 145°56'  
Track history (hours):
 
Tides and Currents Weather Stations Pressure Air Temp Water Temp Dewpoint Dewpoint Depression Visibility Wind Speed Wind Dir Waves Ship Positions

Oslo Bulk 1

Last reported at 2016-Jul-13 03:31 UTC. Time now 2016-Jul-30 05:29 UTC.
Position S 26°56' E 153°44'.
Warning: this ship's position is 17 days out of date.

Length 108 m; draft 6.2 m.

Type: Ship. MMSI: 564010000.

Date/timePositionNaut miles runAvg speedWind from/ knotsBaromVisibWave heightAir tempDewpointWater temp
2016-Jul-13 03:31S 26°56' E 153°44'4811.2
2016-Jul-12 23:16S 27°43' E 153°47'710.1
2016-Jul-12 22:33S 27°51' E 153°48'283 8.8
2016-Jul-11 14:33S 32°27' E 152°38'1010.3
2016-Jul-11 13:33S 32°35' E 152°30'1010.4
2016-Jul-11 12:33S 32°43' E 152°21'1010.1
2016-Jul-11 11:33S 32°49' E 152°12'1010.4
2016-Jul-11 10:33S 32°53' E 152°01'8 8.1
2016-Jul-11 09:33S 32°56' E 151°52'5 5.2
2016-Jul-11 08:33S 32°54' E 151°46'0 0.2
2016-Jul-11 07:31S 32°54' E 151°46'0 0.0
2016-Jul-11 06:31S 32°54' E 151°46'0 0.0
2016-Jul-11 04:31S 32°54' E 151°46'0 0.0
2016-Jul-11 03:31S 32°54' E 151°46'0 0.0
2016-Jul-11 02:31S 32°54' E 151°46'0 0.0
2016-Jul-11 01:31S 32°54' E 151°46'0 0.0
2016-Jul-11 00:31S 32°54' E 151°46'0 0.0
2016-Jul-10 23:34S 32°54' E 151°46'0 0.0
2016-Jul-10 22:31S 32°54' E 151°46'0 0.0
2016-Jul-10 21:31S 32°54' E 151°46'0 0.0
2016-Jul-10 20:31S 32°54' E 151°46'0 0.0
2016-Jul-10 19:31S 32°54' E 151°46'0 0.0
2016-Jul-10 18:31S 32°54' E 151°46'0 0.0
2016-Jul-10 17:31S 32°54' E 151°46'0 0.0
2016-Jul-10 16:31S 32°54' E 151°46'0 0.0
2016-Jul-10 15:31S 32°54' E 151°46'0 0.0
2016-Jul-10 14:31S 32°54' E 151°46'0 0.0
2016-Jul-10 13:31S 32°54' E 151°46'0 0.1
2016-Jul-10 12:33S 32°54' E 151°46'13 6.6
2016-Jul-10 10:34S 33°00' E 151°59'2 1.5
2016-Jul-10 09:33S 33°01' E 152°01'9 8.6
2016-Jul-10 08:33S 33°05' E 151°51'20110.3
2016-Jul-09 13:04S 36°16' E 150°39'510.3
2016-Jul-09 12:34S 36°21' E 150°37'1010.4
2016-Jul-09 11:33S 36°32' E 150°33'10 9.6
2016-Jul-09 10:33S 36°41' E 150°31'9 9.2
2016-Jul-09 09:33S 36°50' E 150°27'9 8.9
2016-Jul-09 08:34S 36°58' E 150°24'10 9.7
2016-Jul-09 07:34S 37°07' E 150°21'1110.7
2016-Jul-09 06:33S 37°18' E 150°16'2010.1
2016-Jul-09 04:33S 37°36' E 150°05'1010.2
2016-Jul-09 03:33S 37°42' E 149°55'1010.4
2016-Jul-09 02:34S 37°49' E 149°45'1110.9
2016-Jul-09 01:33S 37°55' E 149°34'1110.7
2016-Jul-09 00:34S 38°02' E 149°23'1110.7
2016-Jul-08 23:34S 38°09' E 149°13'1110.7
2016-Jul-08 22:34S 38°16' E 149°02'1110.8
2016-Jul-08 21:33S 38°23' E 148°52'1110.9
2016-Jul-08 20:33S 38°30' E 148°41'1110.8
2016-Jul-08 19:33S 38°37' E 148°31'65 9.3
2016-Jul-08 12:33S 39°04' E 147°15'9 9.1
2016-Jul-08 11:33S 39°07' E 147°04'1010.2
2016-Jul-08 10:33S 39°10' E 146°51'1111.1
2016-Jul-08 09:34S 39°14' E 146°38'1111.1
2016-Jul-08 08:33S 39°16' E 146°24'1111.0
2016-Jul-08 07:33S 39°16' E 146°10'1110.6
2016-Jul-08 06:33S 39°16' E 145°56'  

Dump ship's entire track history